Time;durP1;ratioP1;P1;durP2;ratioP2;P2;SDS_P1;SDS_P2;PMS_P1;PMS_P2;Temp;Humidity;BMP_temperature;BMP_pressure;BME280_temperature;BME280_humidity;BME280_pressure;Samples;Min_cycle;Max_cycle;Signal;HPM_P1;HPM_P2
2022/11/24 00:00:17;;;;;;;9.00;2.70;;;;;;;19.09;55.26;99658.69;5089178;28;20205;-65
2022/11/24 00:02:42;;;;;;;13.50;3.67;;;;;;;19.11;55.47;99645.63;5085263;28;20570;-65
2022/11/24 00:05:08;;;;;;;10.23;2.47;;;;;;;19.10;55.45;99655.44;5085659;28;20257;-65
2022/11/24 00:07:34;;;;;;;10.33;3.10;;;;;;;19.18;55.11;99654.25;5085927;28;20271;-65
2022/11/24 00:09:59;;;;;;;11.23;3.07;;;;;;;19.19;54.92;99657.91;5089129;28;20171;-65
2022/11/24 00:12:25;;;;;;;12.43;2.70;;;;;;;19.19;55.34;99658.75;5090113;28;20526;-65
2022/11/24 00:14:50;;;;;;;10.57;2.87;;;;;;;19.20;55.17;99659.56;5089543;28;20592;-65
2022/11/24 00:17:16;;;;;;;8.20;2.80;;;;;;;19.20;55.18;99668.97;5089804;28;20625;-65
2022/11/24 00:19:41;;;;;;;8.57;3.10;;;;;;;19.15;55.07;99668.53;5089459;28;20171;-65
2022/11/24 00:22:06;;;;;;;10.03;3.10;;;;;;;19.13;55.50;99668.94;5076305;28;20208;-64
2022/11/24 00:24:32;;;;;;;8.83;3.37;;;;;;;19.12;55.07;99670.13;5070187;28;20179;-62
2022/11/24 00:26:57;;;;;;;8.50;2.80;;;;;;;19.16;54.84;99667.31;5070852;28;20174;-62
2022/11/24 00:29:23;;;;;;;7.33;2.80;;;;;;;19.10;55.23;99678.31;5071191;28;20167;-62
2022/11/24 00:31:48;;;;;;;8.83;3.00;;;;;;;19.16;55.60;99676.72;5084990;28;20244;-61
2022/11/24 00:34:13;;;;;;;8.50;3.17;;;;;;;19.15;55.45;99677.94;5090012;28;20178;-62
2022/11/24 00:36:39;;;;;;;8.93;2.83;;;;;;;19.12;55.58;99693.03;5090009;28;20158;-62
2022/11/24 00:39:12;;;;;;;6.93;2.70;;;;;;;19.14;55.53;99679.16;5086674;28;20182;-62
2022/11/24 00:41:37;;;;;;;9.30;2.30;;;;;;;19.16;55.65;99681.63;5070123;28;20227;-62
2022/11/24 00:44:03;;;;;;;10.07;2.70;;;;;;;19.13;55.73;99691.84;5069837;28;20537;-62
2022/11/24 00:46:29;;;;;;;8.33;3.13;;;;;;;19.16;56.03;99691.00;5068085;28;20190;-61
2022/11/24 00:48:54;;;;;;;11.20;3.10;;;;;;;19.12;55.85;99690.16;5069390;28;20197;-62
2022/11/24 00:51:21;;;;;;;10.57;2.60;;;;;;;19.15;56.00;99697.97;5078194;28;20175;-61
2022/11/24 00:53:46;;;;;;;9.37;2.80;;;;;;;19.14;56.13;99709.81;5071035;28;20258;-61
2022/11/24 00:56:12;;;;;;;10.03;2.30;;;;;;;19.16;56.01;99710.25;5090681;28;20427;-62
2022/11/24 00:58:37;;;;;;;8.20;2.50;;;;;;;19.14;56.14;99718.38;5091104;28;20599;-61
2022/11/24 01:01:06;;;;;;;8.60;2.30;;;;;;;19.13;56.33;99714.72;5090874;28;20630;-62
2022/11/24 01:03:32;;;;;;;9.63;2.50;;;;;;;19.14;56.35;99721.25;5090722;28;20534;-61
2022/11/24 01:06:14;;;;;;;11.43;2.70;;;;;;;19.08;56.94;99717.97;5090713;28;20440;-62
2022/11/24 01:08:40;;;;;;;7.63;2.30;;;;;;;19.10;56.75;99718.38;5090490;28;20207;-62
2022/11/24 01:11:25;;;;;;;11.17;3.00;;;;;;;19.12;56.72;99718.78;5090978;28;20507;-62
2022/11/24 01:13:52;;;;;;;4.60;2.17;;;;;;;19.08;56.90;99720.81;5090924;28;20196;-62
2022/11/24 01:16:26;;;;;;;6.80;2.50;;;;;;;19.11;56.89;99724.94;5090938;28;20428;-61
2022/11/24 01:18:51;;;;;;;8.17;2.40;;;;;;;19.12;56.86;99732.28;5089834;28;20783;-61
2022/11/24 01:21:17;;;;;;;5.23;2.00;;;;;;;19.10;57.32;99729.81;5071604;28;20408;-61
2022/11/24 01:23:42;;;;;;;5.13;2.20;;;;;;;19.17;56.73;99726.19;5089384;28;20190;-62
2022/11/24 01:26:09;;;;;;;8.30;2.30;;;;;;;19.12;57.09;99738.81;5051360;28;20181;-61
2022/11/24 01:28:35;;;;;;;8.80;2.87;;;;;;;19.11;57.08;99736.38;5083345;28;20179;-62
2022/11/24 01:31:01;;;;;;;8.27;2.47;;;;;;;19.12;57.01;99732.28;5089655;28;20396;-62
2022/11/24 01:33:27;;;;;;;7.57;2.43;;;;;;;19.11;57.15;99734.31;5093276;28;20193;-62
2022/11/24 01:35:52;;;;;;;9.90;2.60;;;;;;;19.12;57.27;99738.81;5094413;28;20913;-62
2022/11/24 01:38:18;;;;;;;8.43;2.47;;;;;;;19.06;57.41;99751.84;5094710;28;20170;-62
2022/11/24 01:40:43;;;;;;;9.20;2.50;;;;;;;19.11;57.32;99744.97;5094201;28;20178;-62
2022/11/24 01:43:19;;;;;;;7.37;2.70;;;;;;;19.08;57.74;99749.44;5094192;28;20194;-62
2022/11/24 01:45:45;;;;;;;8.90;2.40;;;;;;;19.11;57.33;99748.63;5059644;28;20173;-62
2022/11/24 01:48:18;;;;;;;14.03;2.67;;;;;;;19.09;57.48;99750.25;5094330;28;20458;-62
2022/11/24 01:50:43;;;;;;;7.20;2.37;;;;;;;19.08;57.60;99752.28;5076779;28;20208;-61
2022/11/24 01:53:09;;;;;;;8.70;2.70;;;;;;;19.09;57.38;99747.38;5093289;28;20424;-62
2022/11/24 01:55:35;;;;;;;5.50;2.30;;;;;;;19.08;57.58;99740.00;5093664;28;20241;-61
2022/11/24 01:58:08;;;;;;;4.40;1.90;;;;;;;19.06;57.75;99737.56;5093528;28;20289;-62
2022/11/24 02:00:37;;;;;;;4.90;2.23;;;;;;;19.05;57.67;99740.81;5093553;28;20412;-62
2022/11/24 02:03:02;;;;;;;9.47;2.30;;;;;;;19.05;57.54;99735.06;5060969;28;20461;-61
2022/11/24 02:05:42;;;;;;;10.90;2.90;;;;;;;19.06;57.85;99740.41;5073623;28;20552;-61
2022/11/24 02:08:16;;;;;;;7.00;2.40;;;;;;;19.10;58.07;99744.13;5073633;28;20222;-61
2022/11/24 02:10:42;;;;;;;7.13;2.93;;;;;;;19.08;57.79;99738.00;5073432;28;20500;-62
2022/11/24 02:13:07;;;;;;;6.03;2.90;;;;;;;19.07;57.94;99730.59;5072277;28;20417;-62
2022/11/24 02:15:33;;;;;;;4.80;2.10;;;;;;;19.06;58.11;99746.13;5072151;28;20164;-62
2022/11/24 02:17:58;;;;;;;3.90;1.60;;;;;;;19.03;58.06;99744.09;5073401;28;20175;-61
2022/11/24 02:20:24;;;;;;;6.53;2.40;;;;;;;19.07;57.88;99744.91;5073581;28;20654;-62
2022/11/24 02:23:13;;;;;;;6.50;2.47;;;;;;;19.05;58.24;99744.50;5073197;28;20210;-61
2022/11/24 02:25:38;;;;;;;7.90;2.30;;;;;;;19.03;57.78;99744.09;5073429;28;20160;-61
2022/11/24 02:28:06;;;;;;;7.77;2.23;;;;;;;19.04;58.03;99751.44;5073007;28;20751;-62
2022/11/24 02:30:31;;;;;;;5.80;2.60;;;;;;;19.04;58.24;99742.84;5077750;28;20679;-62
2022/11/24 02:32:57;;;;;;;6.20;2.20;;;;;;;19.03;58.20;99746.94;5090760;28;20416;-61
2022/11/24 02:35:22;;;;;;;7.23;2.23;;;;;;;19.05;58.05;99755.09;5074684;28;20533;-62
2022/11/24 02:37:47;;;;;;;6.83;2.17;;;;;;;19.04;58.22;99747.75;5093105;28;20193;-61
2022/11/24 02:40:19;;;;;;;5.33;1.90;;;;;;;19.04;58.21;99747.75;5093060;28;20518;-61
2022/11/24 02:42:44;;;;;;;5.77;2.30;;;;;;;19.08;58.19;99745.75;5075322;28;20198;-61
2022/11/24 02:45:10;;;;;;;5.07;2.40;;;;;;;19.03;58.36;99746.13;5092020;28;20405;-62
2022/11/24 02:47:35;;;;;;;9.27;2.47;;;;;;;19.02;58.17;99742.41;5074969;28;20175;-61
2022/11/24 02:50:01;;;;;;;6.07;2.30;;;;;;;18.99;58.40;99745.25;5089904;28;20182;-62
2022/11/24 02:52:26;;;;;;;5.73;2.27;;;;;;;19.00;58.46;99753.44;5093158;28;20525;-61
2022/11/24 02:54:52;;;;;;;7.70;2.67;;;;;;;18.99;58.41;99748.13;5092562;28;20267;-61
2022/11/24 02:57:17;;;;;;;8.47;2.87;;;;;;;18.99;58.68;99751.81;5074661;28;20171;-62
2022/11/24 02:59:42;;;;;;;7.97;2.13;;;;;;;19.04;58.55;99747.75;5094144;28;20170;-61
2022/11/24 03:02:09;;;;;;;4.93;1.90;;;;;;;19.02;58.35;99748.13;5113626;28;20246;-62
2022/11/24 03:04:34;;;;;;;4.20;1.90;;;;;;;18.99;58.37;99748.94;5092795;28;20215;-62
2022/11/24 03:07:00;;;;;;;5.63;2.53;;;;;;;19.02;58.44;99753.84;5092978;28;20412;-62
2022/11/24 03:09:25;;;;;;;7.30;2.03;;;;;;;19.00;58.35;99758.34;5092413;28;20177;-61
2022/11/24 03:11:51;;;;;;;6.77;2.07;;;;;;;18.99;58.45;99753.84;5092661;28;20626;-61
2022/11/24 03:14:16;;;;;;;3.97;2.10;;;;;;;18.99;58.51;99743.22;5092511;28;20208;-61
2022/11/24 03:16:41;;;;;;;7.57;2.33;;;;;;;18.97;58.60;99748.50;5092692;28;20220;-61
2022/11/24 03:19:07;;;;;;;6.43;2.20;;;;;;;18.98;58.56;99750.19;5092438;28;20162;-61
2022/11/24 03:21:32;;;;;;;5.97;2.20;;;;;;;18.96;58.60;99741.16;5089212;28;20178;-61
2022/11/24 03:23:58;;;;;;;4.17;1.80;;;;;;;18.96;58.64;99749.75;5071361;28;20210;-61
2022/11/24 03:26:23;;;;;;;6.63;2.00;;;;;;;18.98;58.58;99750.19;5092725;28;20163;-62
2022/11/24 03:28:50;;;;;;;4.30;1.87;;;;;;;18.99;58.64;99750.97;5092431;28;20641;-62
2022/11/24 03:31:15;;;;;;;7.83;1.93;;;;;;;18.97;58.65;99757.09;5057421;28;20189;-62
2022/11/24 03:33:41;;;;;;;7.67;2.30;;;;;;;18.95;58.88;99756.69;5092028;28;20785;-61
2022/11/24 03:36:07;;;;;;;7.27;2.30;;;;;;;18.98;58.57;99763.66;5069649;28;20621;-61
2022/11/24 03:38:32;;;;;;;3.57;1.73;;;;;;;18.96;58.93;99766.91;5071735;28;20270;-62
2022/11/24 03:40:58;;;;;;;5.10;2.03;;;;;;;18.94;58.78;99769.34;5070495;28;20500;-61
2022/11/24 03:43:23;;;;;;;4.70;2.20;;;;;;;18.94;58.74;99766.50;5070478;28;20201;-61
2022/11/24 03:45:49;;;;;;;5.47;2.47;;;;;;;18.95;58.99;99762.41;5071691;28;20175;-61
2022/11/24 03:48:15;;;;;;;10.47;2.37;;;;;;;18.98;58.74;99773.06;5070674;28;20203;-62
2022/11/24 03:50:40;;;;;;;3.97;1.77;;;;;;;18.96;58.90;99781.19;5071752;28;20155;-61
2022/11/24 03:53:06;;;;;;;6.37;2.00;;;;;;;18.93;58.85;99762.00;5070646;28;20417;-62
2022/11/24 03:55:31;;;;;;;10.27;2.30;;;;;;;18.94;58.99;99768.50;5070036;28;20227;-61
2022/11/24 03:57:57;;;;;;;6.03;1.90;;;;;;;18.95;58.99;99765.25;5071640;28;20561;-61
2022/11/24 04:00:22;;;;;;;8.50;2.00;;;;;;;18.95;58.78;99770.97;5071595;28;20633;-61
2022/11/24 04:02:48;;;;;;;3.17;1.60;;;;;;;18.95;58.87;99773.84;5074417;28;20218;-61
2022/11/24 04:05:13;;;;;;;4.70;1.83;;;;;;;18.95;58.73;99773.84;5070245;28;20191;-62
2022/11/24 04:07:39;;;;;;;2.87;1.57;;;;;;;18.92;59.04;99785.25;5071210;28;20175;-62
2022/11/24 04:10:05;;;;;;;10.00;2.07;;;;;;;18.93;58.80;99790.59;5071420;28;20167;-61
2022/11/24 04:12:42;;;;;;;5.23;1.63;;;;;;;18.95;58.98;99791.00;5071723;28;20955;-61
2022/11/24 04:15:08;;;;;;;4.20;1.70;;;;;;;18.96;58.87;99780.41;5071536;28;20159;-62
2022/11/24 04:17:33;;;;;;;4.43;1.80;;;;;;;18.95;58.95;99770.97;5071366;28;20751;-61
2022/11/24 04:19:59;;;;;;;7.73;2.27;;;;;;;18.96;58.82;99780.41;5070522;28;20780;-62
2022/11/24 04:22:24;;;;;;;6.63;2.00;;;;;;;18.95;58.99;99768.13;5070685;28;21016;-61
2022/11/24 04:24:50;;;;;;;7.70;2.50;;;;;;;18.93;58.86;99782.00;5075830;28;20174;-61
2022/11/24 04:27:15;;;;;;;4.00;1.70;;;;;;;18.96;58.86;99781.19;5090435;28;20167;-62
2022/11/24 04:29:41;;;;;;;4.63;1.80;;;;;;;18.92;58.87;99780.34;5072601;28;20191;-62
2022/11/24 04:32:07;;;;;;;5.77;1.63;;;;;;;18.97;58.95;99787.75;5090957;28;20167;-61
2022/11/24 04:34:33;;;;;;;7.40;2.13;;;;;;;18.95;58.87;99793.88;5091303;28;20269;-61
2022/11/24 04:36:58;;;;;;;4.17;1.53;;;;;;;18.94;59.07;99788.53;5091426;28;20972;-61
2022/11/24 04:39:24;;;;;;;4.47;1.73;;;;;;;18.97;59.10;99788.56;5090804;28;20167;-62
2022/11/24 04:41:49;;;;;;;6.63;2.77;;;;;;;18.97;58.74;99788.56;5091535;28;20621;-61
2022/11/24 04:44:15;;;;;;;4.23;1.80;;;;;;;18.94;59.03;99788.53;5082227;28;20191;-61
2022/11/24 04:46:40;;;;;;;4.30;1.50;;;;;;;18.95;59.12;99793.03;5071656;28;20498;-62
2022/11/24 04:49:10;;;;;;;3.53;1.67;;;;;;;18.97;58.81;99787.75;5071709;28;20208;-61
2022/11/24 04:51:36;;;;;;;3.40;1.50;;;;;;;18.98;58.86;99798.81;5071732;28;20167;-61
2022/11/24 04:54:01;;;;;;;4.90;2.10;;;;;;;18.97;58.92;99804.91;5071405;28;20468;-62
2022/11/24 04:56:27;;;;;;;3.97;1.60;;;;;;;18.96;58.86;99806.94;5071518;28;20230;-61
2022/11/24 04:58:52;;;;;;;5.77;1.70;;;;;;;18.94;59.08;99812.25;5071659;28;20182;-61
2022/11/24 05:01:17;;;;;;;3.53;1.40;;;;;;;18.93;58.92;99813.47;5071631;28;20159;-61
2022/11/24 05:03:43;;;;;;;8.73;2.20;;;;;;;18.93;58.97;99816.34;5076256;28;20214;-61
2022/11/24 05:06:08;;;;;;;5.83;1.93;;;;;;;18.97;59.04;99824.94;5071358;28;20164;-62
2022/11/24 05:08:34;;;;;;;4.53;1.90;;;;;;;18.95;59.10;99819.63;5075156;28;20171;-61
2022/11/24 05:11:03;;;;;;;4.87;1.60;;;;;;;18.97;58.94;99813.50;5088662;28;20210;-62
2022/11/24 05:13:29;;;;;;;3.73;1.43;;;;;;;18.94;59.28;99815.13;5095697;28;20159;-61
2022/11/24 05:15:55;;;;;;;4.40;1.47;;;;;;;18.91;59.20;99810.16;5095442;28;20401;-62
2022/11/24 05:18:21;;;;;;;3.07;1.20;;;;;;;18.91;59.11;99804.44;5092103;28;20526;-61
2022/11/24 05:20:47;;;;;;;3.43;1.50;;;;;;;18.93;59.28;99804.91;5095461;28;20739;-61
2022/11/24 05:23:13;;;;;;;4.80;1.60;;;;;;;18.92;59.34;99808.94;5095312;28;20547;-61
2022/11/24 05:25:39;;;;;;;6.53;1.60;;;;;;;18.94;59.24;99823.69;5094597;28;20516;-62
2022/11/24 05:28:07;;;;;;;4.80;1.73;;;;;;;18.97;59.13;99816.38;5092701;28;20219;-62
2022/11/24 05:30:33;;;;;;;3.87;1.87;;;;;;;18.98;59.05;99821.69;5091803;28;20796;-62
2022/11/24 05:32:59;;;;;;;4.87;1.77;;;;;;;18.94;59.28;99820.00;5094865;28;20428;-62
2022/11/24 05:35:24;;;;;;;4.50;1.57;;;;;;;18.96;59.08;99834.75;5060157;28;20428;-61
2022/11/24 05:37:49;;;;;;;3.90;1.57;;;;;;;18.99;59.34;99851.94;5095284;28;20166;-61
2022/11/24 05:40:15;;;;;;;4.83;2.00;;;;;;;18.95;59.16;99848.22;5095288;28;20202;-61
2022/11/24 05:42:41;;;;;;;4.10;1.50;;;;;;;18.94;58.99;99843.72;5095013;28;20194;-61
2022/11/24 05:45:14;;;;;;;4.90;1.70;;;;;;;18.98;59.21;99861.75;5095150;28;20163;-61
2022/11/24 05:47:39;;;;;;;3.73;1.30;;;;;;;18.98;58.99;99858.88;5094712;28;20178;-62
2022/11/24 05:50:06;;;;;;;9.13;2.50;;;;;;;18.98;59.04;99864.59;5095227;28;20412;-61
2022/11/24 05:52:31;;;;;;;3.17;1.50;;;;;;;18.93;59.37;99870.69;5094891;28;20167;-61
2022/11/24 05:54:57;;;;;;;3.87;1.73;;;;;;;18.98;59.09;99869.50;5094683;28;20496;-61
2022/11/24 05:57:22;;;;;;;4.87;1.80;;;;;;;18.97;59.17;99882.16;5094698;28;20598;-62
2022/11/24 05:59:48;;;;;;;4.23;1.87;;;;;;;18.95;58.89;99881.72;5094754;28;20171;-61
2022/11/24 06:02:13;;;;;;;4.20;1.67;;;;;;;18.95;59.60;99882.53;5060003;28;20163;-61
2022/11/24 06:04:38;;;;;;;4.27;1.47;;;;;;;18.96;59.08;99884.19;5078331;28;20202;-61
2022/11/24 06:07:06;;;;;;;3.57;1.50;;;;;;;18.99;59.08;99882.56;5074447;28;20159;-61
2022/11/24 06:09:31;;;;;;;3.20;1.30;;;;;;;18.98;59.28;99893.22;5074503;28;20229;-62
2022/11/24 06:11:57;;;;;;;6.13;2.13;;;;;;;19.02;58.91;99905.50;5072985;28;20421;-62
2022/11/24 06:14:22;;;;;;;3.10;1.40;;;;;;;19.00;59.09;99912.81;5073120;28;20576;-62
2022/11/24 06:16:47;;;;;;;4.50;1.80;;;;;;;18.96;59.37;99909.13;5074267;28;20619;-61
2022/11/24 06:19:13;;;;;;;4.33;1.80;;;;;;;18.95;59.29;99914.00;5071876;28;20160;-61
2022/11/24 06:21:39;;;;;;;3.27;1.50;;;;;;;18.98;59.35;99916.09;5083906;28;20235;-61
2022/11/24 06:24:04;;;;;;;4.07;1.63;;;;;;;18.98;59.61;99921.81;5094678;28;20202;-61
2022/11/24 06:26:30;;;;;;;3.37;1.50;;;;;;;18.99;59.15;99923.47;5094497;28;20216;-61
2022/11/24 06:28:55;;;;;;;4.63;1.67;;;;;;;18.95;59.10;99918.91;5087355;28;20179;-61
2022/11/24 06:31:21;;;;;;;4.80;1.23;;;;;;;18.98;59.20;99927.53;5073667;28;20167;-62
2022/11/24 06:33:47;;;;;;;3.57;1.60;;;;;;;19.01;59.07;99937.38;5085507;28;20205;-61
2022/11/24 06:36:12;;;;;;;3.43;1.53;;;;;;;19.00;59.12;99958.59;5094007;28;20174;-61
2022/11/24 06:38:38;;;;;;;4.50;1.30;;;;;;;18.99;59.07;99966.38;5094249;28;20167;-61
2022/11/24 06:41:05;;;;;;;5.07;1.50;;;;;;;19.00;58.98;99979.47;5093951;28;20210;-61
2022/11/24 06:43:31;;;;;;;4.90;1.43;;;;;;;19.00;59.13;99990.06;5093817;28;20209;-62
2022/11/24 06:45:56;;;;;;;5.30;1.40;;;;;;;18.96;59.26;99995.75;5090540;28;20413;-61
2022/11/24 06:48:22;;;;;;;4.20;2.10;;;;;;;19.02;59.11;99993.38;5076186;28;20178;-61
2022/11/24 06:50:48;;;;;;;4.83;1.60;;;;;;;18.97;59.17;100005.97;5102344;28;20181;-62
2022/11/24 06:53:14;;;;;;;3.33;1.30;;;;;;;18.98;59.09;99996.19;5114121;28;20401;-62
2022/11/24 06:55:39;;;;;;;3.23;1.50;;;;;;;18.98;59.35;100001.94;5114321;28;20692;-61
2022/11/24 06:58:05;;;;;;;3.23;1.57;;;;;;;18.97;59.50;100005.97;5113899;28;20543;-62
2022/11/24 07:00:33;;;;;;;3.40;1.40;;;;;;;18.99;59.09;100005.59;5113971;28;20223;-62
2022/11/24 07:02:59;;;;;;;3.37;1.70;;;;;;;19.04;59.13;100008.09;5106488;28;20206;-62
2022/11/24 07:05:24;;;;;;;2.50;1.37;;;;;;;19.03;59.05;100004.44;5072059;28;20930;-61
2022/11/24 07:07:50;;;;;;;3.70;1.47;;;;;;;18.97;59.14;100008.84;5086966;28;20166;-62
2022/11/24 07:10:15;;;;;;;3.60;1.67;;;;;;;19.00;59.17;100010.94;5092365;28;20175;-62
2022/11/24 07:12:41;;;;;;;5.10;1.40;;;;;;;19.02;59.31;100013.41;5093395;28;20159;-61
2022/11/24 07:15:07;;;;;;;2.40;1.20;;;;;;;18.98;59.39;100001.94;5093072;28;20163;-62
2022/11/24 07:17:38;;;;;;;4.67;1.67;;;;;;;19.00;59.19;100010.09;5092685;28;20184;-61
2022/11/24 07:20:04;;;;;;;2.70;1.40;;;;;;;18.98;59.14;100007.66;5093234;28;20496;-61
2022/11/24 07:22:30;;;;;;;3.07;1.40;;;;;;;18.96;59.30;99998.63;5089571;28;20521;-61
2022/11/24 07:24:55;;;;;;;5.60;1.53;;;;;;;18.97;59.12;99997.38;5092761;28;20404;-61
2022/11/24 07:27:21;;;;;;;5.93;1.63;;;;;;;19.00;59.19;99999.47;5089228;28;20216;-62
2022/11/24 07:29:46;;;;;;;3.97;1.60;;;;;;;18.96;59.27;100006.38;5092366;28;20181;-61
2022/11/24 07:32:11;;;;;;;3.00;1.33;;;;;;;18.98;59.14;100012.53;5091853;28;20597;-62
2022/11/24 07:34:37;;;;;;;4.70;1.20;;;;;;;19.02;59.20;100008.47;5087416;28;20526;-61
2022/11/24 07:37:02;;;;;;;5.33;2.03;;;;;;;18.97;59.46;100011.69;5072453;28;20174;-61
2022/11/24 07:39:28;;;;;;;3.33;1.40;;;;;;;18.98;59.39;100013.38;5072106;28;20183;-61
2022/11/24 07:41:53;;;;;;;2.93;1.37;;;;;;;19.02;59.10;100019.13;5082381;28;20549;-61
2022/11/24 07:44:18;;;;;;;3.70;1.40;;;;;;;19.01;59.02;100035.44;5071786;28;20634;-61
2022/11/24 07:46:44;;;;;;;7.20;1.80;;;;;;;18.99;59.09;100032.19;5090000;28;20179;-61
2022/11/24 07:49:09;;;;;;;2.57;1.50;;;;;;;19.01;59.32;100024.00;5070567;28;20540;-61
2022/11/24 07:51:35;;;;;;;2.47;1.43;;;;;;;19.01;59.28;100032.59;5076568;28;20680;-61
2022/11/24 07:54:01;;;;;;;3.40;1.13;;;;;;;19.01;59.31;100034.66;5092301;28;20552;-62
2022/11/24 07:56:26;;;;;;;4.90;1.67;;;;;;;19.03;59.13;100027.31;5053441;28;20477;-61
2022/11/24 07:58:52;;;;;;;2.67;1.63;;;;;;;19.00;59.28;100018.66;5053664;28;20245;-63
2022/11/24 08:01:17;;;;;;;2.67;1.17;;;;;;;19.02;59.11;100022.78;5072058;28;20187;-63
2022/11/24 08:03:43;;;;;;;2.47;1.40;;;;;;;19.03;59.19;100026.50;5058240;28;20328;-63
2022/11/24 08:06:09;;;;;;;3.40;1.23;;;;;;;19.03;59.12;100038.75;5065983;28;20200;-63
2022/11/24 08:08:34;;;;;;;2.83;1.10;;;;;;;19.01;59.28;100040.38;5075084;28;20207;-63
2022/11/24 08:11:07;;;;;;;3.33;1.57;;;;;;;19.03;59.25;100035.06;5074157;28;20190;-63
2022/11/24 08:13:33;;;;;;;3.90;1.40;;;;;;;19.04;59.22;100028.97;5079177;28;20174;-63
2022/11/24 08:16:03;;;;;;;4.40;1.73;;;;;;;19.02;59.37;100051.41;5081950;28;20425;-63
2022/11/24 08:18:28;;;;;;;2.70;1.50;;;;;;;19.04;59.04;100051.84;5079602;28;20409;-63
2022/11/24 08:20:56;;;;;;;2.67;1.13;;;;;;;19.01;59.22;100038.31;5082241;28;20420;-62
2022/11/24 08:23:22;;;;;;;3.40;1.50;;;;;;;18.89;59.94;100044.31;5079180;28;20297;-62
2022/11/24 08:25:47;;;;;;;9.20;2.80;;;;;;;18.77;59.09;100053.13;5075474;28;20447;-63
2022/11/24 08:28:13;;;;;;;13.53;3.27;;;;;;;18.72;59.86;100062.03;5073291;28;20916;-63
2022/11/24 08:30:38;;;;;;;11.13;4.47;;;;;;;19.07;59.09;100061.69;5076037;28;20182;-64
2022/11/24 08:33:04;;;;;;;8.13;2.80;;;;;;;19.14;57.58;100061.75;5075162;28;20183;-63
2022/11/24 08:35:29;;;;;;;10.07;3.00;;;;;;;19.24;56.40;100067.66;5061657;28;20182;-63
2022/11/24 08:37:55;;;;;;;8.70;2.70;;;;;;;19.18;54.33;100060.63;5084531;28;20190;-64
2022/11/24 08:40:20;;;;;;;7.80;2.77;;;;;;;19.19;54.41;100073.69;5080811;28;20191;-64
2022/11/24 08:42:46;;;;;;;14.73;3.30;;;;;;;19.20;54.39;100072.47;5082513;28;20270;-63
2022/11/24 08:45:11;;;;;;;11.03;3.50;;;;;;;19.21;54.69;100068.41;5091376;28;20264;-64
2022/11/24 08:47:37;;;;;;;11.97;3.13;;;;;;;19.17;54.95;100067.53;5075917;28;20515;-64
2022/11/24 08:50:04;;;;;;;10.07;3.50;;;;;;;19.19;54.35;100065.13;5072292;28;20206;-63
2022/11/24 08:52:29;;;;;;;14.00;3.33;;;;;;;19.35;53.66;100068.59;5083960;28;20890;-64
2022/11/24 08:54:55;;;;;;;7.50;2.57;;;;;;;19.41;52.97;100074.81;5081000;28;20471;-63
2022/11/24 08:57:20;;;;;;;7.50;2.70;;;;;;;19.36;52.89;100078.81;5083680;28;20198;-63
2022/11/24 08:59:46;;;;;;;7.03;2.50;;;;;;;19.46;53.95;100080.97;5093958;28;20243;-63
2022/11/24 09:02:12;;;;;;;7.03;3.00;;;;;;;19.54;53.86;100076.16;5093831;28;20186;-62
2022/11/24 09:04:37;;;;;;;10.77;3.30;;;;;;;19.37;53.43;100082.53;5068793;28;20226;-63
2022/11/24 09:07:03;;;;;;;8.13;3.67;;;;;;;19.48;54.81;100087.16;5088189;28;20497;-63
2022/11/24 09:09:28;;;;;;;6.73;2.60;;;;;;;19.54;54.34;100093.34;5088094;28;20179;-63
2022/11/24 09:11:54;;;;;;;9.20;2.70;;;;;;;19.54;54.17;100088.44;5084613;28;20654;-63
2022/11/24 09:14:19;;;;;;;9.43;2.77;;;;;;;19.52;54.44;100078.59;5080770;28;20185;-63
2022/11/24 09:16:45;;;;;;;6.10;2.63;;;;;;;19.46;54.86;100092.44;5075787;28;20191;-63
2022/11/24 09:19:10;;;;;;;5.63;2.63;;;;;;;19.72;55.55;100105.81;5073893;28;20194;-63
2022/11/24 09:21:37;;;;;;;7.20;3.40;;;;;;;19.58;54.70;100109.34;5074108;28;20187;-62
2022/11/24 09:24:03;;;;;;;9.03;3.00;;;;;;;19.46;55.08;100109.63;5078235;28;20206;-63
2022/11/24 09:26:31;;;;;;;7.77;2.93;;;;;;;19.42;55.81;100111.59;5073756;28;20436;-63
2022/11/24 09:28:57;;;;;;;12.20;3.13;;;;;;;19.33;56.50;100119.69;5083725;28;20435;-62
2022/11/24 09:31:24;;;;;;;7.03;2.30;;;;;;;19.29;56.79;100126.56;5086528;28;20445;-63
2022/11/24 09:33:49;;;;;;;5.87;1.97;;;;;;;19.29;56.87;100127.41;5079648;28;20563;-63
2022/11/24 09:36:15;;;;;;;7.37;2.40;;;;;;;19.29;57.25;100138.03;5083629;28;20478;-63
2022/11/24 09:38:40;;;;;;;8.37;2.80;;;;;;;19.20;56.43;100141.16;5068270;28;20191;-62
2022/11/24 09:41:37;;;;;;;7.97;2.33;;;;;;;19.18;56.30;100148.50;5080782;28;20217;-62
2022/11/24 09:44:33;;;;;;;9.03;2.67;;;;;;;19.18;56.64;100149.31;5078926;28;21190;-62
2022/11/24 09:47:04;;;;;;;8.40;2.60;;;;;;;19.14;56.50;100159.91;5078249;28;20456;-62
2022/11/24 09:49:34;;;;;;;11.60;2.50;;;;;;;19.19;56.04;100155.84;5077370;28;20512;-63
2022/11/24 09:52:01;;;;;;;9.67;3.10;;;;;;;19.18;56.19;100166.50;5063607;28;20448;-62
2022/11/24 09:54:27;;;;;;;12.50;2.60;;;;;;;19.18;56.90;100154.22;5058145;28;20577;-62
2022/11/24 09:56:53;;;;;;;12.80;2.90;;;;;;;19.16;56.03;100166.03;5061207;28;20467;-62
2022/11/24 09:59:22;;;;;;;11.07;3.03;;;;;;;19.11;56.53;100160.66;5065292;28;20273;-63
2022/11/24 10:01:48;;;;;;;15.23;3.20;;;;;;;19.09;56.94;100174.53;5065254;28;20259;-62
2022/11/24 10:04:21;;;;;;;9.43;3.10;;;;;;;19.10;56.89;100179.06;5064754;28;20553;-63
2022/11/24 10:07:05;;;;;;;8.23;2.77;;;;;;;19.14;56.85;100177.06;5074574;28;20212;-63
2022/11/24 10:09:52;;;;;;;10.43;2.80;;;;;;;19.08;57.68;100189.22;5078358;28;20895;-62
2022/11/24 10:12:20;;;;;;;21.90;3.30;;;;;;;19.08;58.22;100178.63;5069396;28;20420;-62
2022/11/24 10:15:08;;;;;;;13.00;2.97;;;;;;;19.10;58.20;100183.94;5077592;28;20417;-62
2022/11/24 10:17:57;;;;;;;15.20;3.40;;;;;;;19.18;57.98;100171.38;5061933;28;20428;-62
2022/11/24 10:20:46;;;;;;;21.53;3.40;;;;;;;19.18;58.12;100183.66;5081642;28;20408;-62
2022/11/24 10:23:28;;;;;;;13.07;3.00;;;;;;;19.20;58.09;100181.22;5066466;28;20484;-62
2022/11/24 10:26:03;;;;;;;11.13;3.53;;;;;;;19.22;58.16;100190.28;5046208;28;20441;-62
2022/11/24 10:28:34;;;;;;;13.10;3.57;;;;;;;19.24;58.07;100176.41;5083307;28;20429;-62
2022/11/24 10:31:34;;;;;;;12.83;3.33;;;;;;;19.24;58.32;100184.16;5067079;28;20425;-62
2022/11/24 10:34:18;;;;;;;14.07;2.53;;;;;;;19.25;57.99;100189.50;5066592;28;20417;-62
2022/11/24 10:37:07;;;;;;;10.80;2.83;;;;;;;19.20;58.59;100181.22;5062569;28;20431;-62
2022/11/24 10:39:47;;;;;;;16.40;3.00;;;;;;;19.20;58.65;100188.97;5077950;28;20438;-62
2022/11/24 10:42:32;;;;;;;14.67;2.60;;;;;;;19.24;58.38;100182.16;5063358;28;20429;-62
2022/11/24 10:45:14;;;;;;;13.83;2.70;;;;;;;19.21;58.50;100188.59;5061620;28;20424;-62
2022/11/24 10:47:40;;;;;;;10.53;2.83;;;;;;;19.22;58.40;100175.97;5076823;28;20520;-62
2022/11/24 10:50:11;;;;;;;14.30;3.13;;;;;;;19.22;58.63;100175.97;5078027;28;20488;-62
2022/11/24 10:52:40;;;;;;;11.63;2.97;;;;;;;19.23;58.54;100183.38;5076440;28;20202;-62
2022/11/24 10:55:05;;;;;;;12.30;2.87;;;;;;;19.24;58.60;100181.31;5060831;28;20527;-62
2022/11/24 10:57:35;;;;;;;9.27;3.33;;;;;;;19.23;58.74;100185.38;5077934;28;20420;-62
2022/11/24 11:00:03;;;;;;;18.00;3.30;;;;;;;19.23;58.57;100189.09;5077982;28;20183;-62
2022/11/24 11:02:36;;;;;;;9.53;2.17;;;;;;;19.27;58.72;100187.06;5076703;28;20429;-62
2022/11/24 11:05:27;;;;;;;16.57;3.10;;;;;;;19.25;58.68;100195.22;5067069;28;20465;-62
2022/11/24 11:08:21;;;;;;;9.10;2.40;;;;;;;19.24;58.73;100185.00;5077997;28;20444;-62
2022/11/24 11:10:48;;;;;;;7.40;2.10;;;;;;;19.23;59.00;100185.38;5076017;28;21159;-62
2022/11/24 11:13:21;;;;;;;17.93;2.90;;;;;;;19.24;58.99;100196.44;5079589;28;20419;-62
2022/11/24 11:15:47;;;;;;;8.07;2.67;;;;;;;19.25;59.25;100189.50;5077586;28;20429;-62
2022/11/24 11:18:17;;;;;;;9.70;3.13;;;;;;;19.25;58.88;100200.97;5062391;28;20456;-62
2022/11/24 11:20:50;;;;;;;6.63;2.37;;;;;;;19.21;58.96;100188.59;5080530;28;20220;-62
2022/11/24 11:23:35;;;;;;;10.70;2.47;;;;;;;19.21;59.13;100188.59;5076129;28;20456;-62
2022/11/24 11:26:30;;;;;;;6.70;2.20;;;;;;;19.19;58.97;100185.31;5081296;28;20436;-62
2022/11/24 11:28:57;;;;;;;10.27;2.80;;;;;;;19.21;58.94;100182.06;5076134;28;20437;-62
2022/11/24 11:31:23;;;;;;;8.17;2.67;;;;;;;19.26;58.75;100185.44;5077921;28;20502;-62